createdAt,value
2018-06-21T00:08:06.638Z,99.90
2018-06-21T00:13:01.289Z,99.90
2018-06-21T00:17:55.924Z,99.90
2018-06-21T00:22:50.683Z,99.90
2018-06-21T00:32:39.746Z,99.90
2018-06-21T00:37:34.356Z,99.90
2018-06-21T00:42:28.939Z,99.90
2018-06-21T00:47:23.499Z,99.90
2018-06-21T00:52:18.083Z,99.90
2018-06-21T00:57:12.746Z,99.90
2018-06-21T01:02:07.398Z,99.90
2018-06-21T01:07:02.324Z,99.90
2018-06-21T01:11:56.932Z,99.90
2018-06-21T01:16:51.643Z,99.90
2018-06-21T01:21:46.313Z,99.90
2018-06-21T01:26:40.946Z,99.90
2018-06-21T01:31:35.578Z,99.90
2018-06-21T01:36:30.102Z,99.90
2018-06-21T01:41:24.614Z,99.90
2018-06-21T01:46:19.265Z,99.90
2018-06-21T01:51:13.821Z,99.90
2018-06-21T01:56:08.339Z,99.90
2018-06-21T02:01:02.879Z,99.90
2018-06-21T02:05:57.553Z,99.90
2018-06-21T02:10:52.153Z,99.90
2018-06-21T02:15:46.692Z,99.90
2018-06-21T02:25:35.932Z,99.90
2018-06-21T02:30:30.603Z,99.90
2018-06-21T02:35:25.354Z,99.90
2018-06-21T02:40:19.939Z,99.90
2018-06-21T02:45:14.594Z,99.90
2018-06-21T02:50:09.222Z,99.90
2018-06-21T02:55:04.989Z,99.90
2018-06-21T02:59:59.916Z,99.90
2018-06-21T03:04:54.747Z,99.90
2018-06-21T03:09:49.337Z,99.90
2018-06-21T03:14:44.292Z,99.90
2018-06-21T03:19:38.982Z,99.90
2018-06-21T03:24:33.654Z,99.90
2018-06-21T03:34:23.219Z,99.90
2018-06-21T03:39:17.783Z,99.90
2018-06-21T03:54:01.413Z,99.90
2018-06-21T04:03:50.560Z,99.90
2018-06-21T04:08:45.327Z,99.90
2018-06-21T04:13:40.053Z,99.90
2018-06-21T04:33:19.761Z,99.90
2018-06-21T04:38:14.322Z,99.90
2018-06-21T04:43:09.056Z,99.90
2018-06-21T04:48:03.696Z,99.90
2018-06-21T04:52:58.710Z,99.90
2018-06-21T04:57:53.212Z,99.90
2018-06-21T05:02:47.778Z,99.90
2018-06-21T05:07:42.527Z,99.90
2018-06-21T05:12:37.067Z,99.90
2018-06-21T05:17:31.610Z,99.90
2018-06-21T05:22:26.868Z,99.90
2018-06-21T05:27:21.351Z,99.90
2018-06-21T05:32:17.326Z,99.90
2018-06-21T05:37:12.638Z,98.80
2018-06-21T05:42:07.105Z,95.20
2018-06-21T05:47:01.793Z,94.80
2018-06-21T05:56:50.911Z,94.00
2018-06-21T06:06:42.149Z,97.30
2018-06-21T06:11:36.675Z,99.00
2018-06-21T06:16:31.404Z,99.90
2018-06-21T06:26:20.151Z,99.90
2018-06-21T06:31:14.626Z,99.90
2018-06-21T06:36:09.086Z,99.90
2018-06-21T06:41:03.560Z,99.90
2018-06-21T06:45:58.457Z,99.90
2018-06-21T06:50:52.949Z,99.90
2018-06-21T06:55:47.626Z,99.90
2018-06-21T07:00:42.131Z,99.90
2018-06-21T07:05:36.752Z,99.90
2018-06-21T07:10:31.462Z,99.90
2018-06-21T07:15:26.185Z,99.90
2018-06-21T07:25:15.440Z,99.90
2018-06-21T07:30:10.315Z,99.90
2018-06-21T07:35:04.797Z,99.90
2018-06-21T07:39:59.345Z,99.90
2018-06-21T07:44:53.813Z,99.90
2018-06-21T07:49:48.302Z,99.90
2018-06-21T07:54:43.272Z,99.90
2018-06-21T07:59:37.882Z,99.90
2018-06-21T08:04:32.730Z,99.90
2018-06-21T08:09:27.368Z,99.90
2018-06-21T08:14:21.915Z,99.90
2018-06-21T08:19:16.384Z,99.90
2018-06-21T08:24:10.835Z,99.90
2018-06-21T08:29:05.300Z,99.90
2018-06-21T08:34:00.010Z,99.90
2018-06-21T08:43:49.244Z,97.80
2018-06-21T08:53:38.326Z,95.30
2018-06-21T08:58:33.408Z,94.10
2018-06-21T09:03:27.882Z,91.80
2018-06-21T09:08:22.331Z,88.10
2018-06-21T09:13:16.781Z,81.70
2018-06-21T09:23:05.702Z,76.80
2018-06-21T09:28:00.357Z,75.50
2018-06-21T09:32:54.926Z,70.60
2018-06-21T09:37:54.925Z,59.20
2018-06-21T09:42:54.916Z,49.10
2018-06-21T09:47:55.076Z,41.40
2018-06-21T09:52:49.986Z,34.40
2018-06-21T09:57:45.603Z,34.60
2018-06-21T10:02:40.598Z,38.50
2018-06-21T10:07:35.343Z,41.20
2018-06-21T10:12:30.077Z,44.20
2018-06-21T10:17:25.351Z,48.20
2018-06-21T10:22:20.416Z,47.70
2018-06-21T10:27:15.052Z,48.30
2018-06-21T10:37:04.213Z,51.60
2018-06-21T10:41:59.278Z,52.80
2018-06-21T10:46:53.922Z,54.40
2018-06-21T10:51:48.598Z,54.70
2018-06-21T10:56:43.473Z,56.30
2018-06-21T11:01:38.448Z,56.10
2018-06-21T11:06:33.300Z,54.40
2018-06-21T11:11:28.526Z,52.30
2018-06-21T11:16:23.473Z,50.30
2018-06-21T11:21:18.364Z,51.20
2018-06-21T11:26:13.589Z,49.70
2018-06-21T11:31:08.292Z,49.80
2018-06-21T11:36:04.313Z,46.40
2018-06-21T11:40:58.788Z,44.90
2018-06-21T11:50:47.692Z,44.60
2018-06-21T12:00:37.020Z,40.50
2018-06-21T12:05:31.956Z,38.20
2018-06-21T12:10:26.833Z,39.30
2018-06-21T12:15:21.492Z,38.90
2018-06-21T12:20:16.005Z,40.50
2018-06-21T12:30:05.049Z,41.00
2018-06-21T12:34:59.750Z,40.10
2018-06-21T12:39:54.211Z,38.90
2018-06-21T12:44:48.671Z,40.00
2018-06-21T12:49:43.502Z,39.70
2018-06-21T13:04:27.088Z,38.70
2018-06-21T13:09:38.656Z,37.20
2018-06-21T13:14:33.626Z,38.30
2018-06-21T13:19:28.092Z,38.40
2018-06-21T13:24:22.697Z,38.40
2018-06-21T13:29:17.446Z,38.00
2018-06-21T13:34:11.928Z,39.30
2018-06-21T13:39:08.579Z,37.20
2018-06-21T13:44:05.601Z,38.50
2018-06-21T13:53:54.919Z,37.90
2018-06-21T13:58:53.221Z,37.30
2018-06-21T14:03:47.699Z,37.40
2018-06-21T14:08:42.460Z,36.90
2018-06-21T14:13:37.137Z,37.50
2018-06-21T14:23:26.411Z,37.30
2018-06-21T14:28:20.921Z,36.70
2018-06-21T14:33:16.322Z,37.90
2018-06-21T14:38:10.914Z,38.30
2018-06-21T14:43:05.963Z,36.80
2018-06-21T14:48:00.503Z,36.70
2018-06-21T14:52:55.268Z,37.40
2018-06-21T14:57:49.779Z,36.70
2018-06-21T15:02:44.284Z,37.20
2018-06-21T15:07:38.802Z,37.20
2018-06-21T15:12:33.527Z,37.20
2018-06-21T15:17:28.350Z,37.60
2018-06-21T15:22:23.130Z,37.50
2018-06-21T15:27:17.639Z,37.80
2018-06-21T15:32:12.138Z,37.20
2018-06-21T15:37:07.001Z,36.90
2018-06-21T15:42:02.270Z,37.60
2018-06-21T15:46:57.033Z,39.20
2018-06-21T15:51:51.579Z,38.60
2018-06-21T15:56:46.612Z,39.30
2018-06-21T16:01:41.147Z,41.20
2018-06-21T16:06:35.703Z,41.90
2018-06-21T16:16:24.852Z,41.90
2018-06-21T16:21:19.286Z,41.10
2018-06-21T16:26:13.782Z,41.00
2018-06-21T16:31:08.238Z,40.40
2018-06-21T16:36:03.070Z,39.80
2018-06-21T16:40:57.830Z,40.50
2018-06-21T16:45:52.693Z,41.40
2018-06-21T16:50:47.228Z,42.70
2018-06-21T16:55:41.924Z,42.60
2018-06-21T17:00:36.589Z,42.70
2018-06-21T17:05:31.452Z,42.60
2018-06-21T17:10:26.098Z,44.50
2018-06-21T17:15:21.366Z,45.10
2018-06-21T17:20:15.981Z,45.50
2018-06-21T17:25:10.534Z,46.10
2018-06-21T17:30:05.505Z,46.60
2018-06-21T17:35:00.208Z,46.80
2018-06-21T17:39:54.720Z,48.10
2018-06-21T17:44:49.309Z,48.60
2018-06-21T17:49:43.822Z,49.50
2018-06-21T17:54:38.504Z,50.10
2018-06-21T17:59:33.637Z,50.80
2018-06-21T18:04:28.243Z,51.70
2018-06-21T18:09:23.104Z,52.30
2018-06-21T18:14:17.753Z,53.30
2018-06-21T18:19:12.399Z,54.50
2018-06-21T18:24:46.335Z,54.90
2018-06-21T18:35:11.853Z,56.10
2018-06-21T18:40:20.668Z,56.70
2018-06-21T18:45:19.956Z,57.30
2018-06-21T18:50:14.462Z,57.90
2018-06-21T18:55:08.959Z,58.50
2018-06-21T19:00:03.710Z,59.40
2018-06-21T19:04:58.182Z,59.70
2018-06-21T19:09:58.021Z,61.60
2018-06-21T19:14:53.098Z,62.70
2018-06-21T19:24:43.831Z,66.20
2018-06-21T19:29:38.340Z,68.30
2018-06-21T19:39:27.436Z,71.70
2018-06-21T19:44:21.966Z,73.00
2018-06-21T19:54:10.967Z,77.30
2018-06-21T19:59:05.617Z,79.20
2018-06-21T20:04:00.350Z,80.90
2018-06-21T20:08:54.884Z,82.60
2018-06-21T20:13:51.403Z,84.30
2018-06-21T20:18:46.944Z,85.80
2018-06-21T20:23:43.972Z,87.70
2018-06-21T20:28:41.224Z,87.90
2018-06-21T20:33:36.837Z,90.50
2018-06-21T20:43:28.086Z,90.90
2018-06-21T20:48:22.876Z,91.30
2018-06-21T20:53:17.921Z,91.50
2018-06-21T20:58:12.618Z,91.70
2018-06-21T21:03:07.258Z,91.70
2018-06-21T21:08:02.307Z,92.10
2018-06-21T21:12:58.416Z,92.20
2018-06-21T21:17:54.023Z,92.30
2018-06-21T21:22:48.682Z,92.30
2018-06-21T21:32:37.969Z,92.80
2018-06-21T21:37:32.643Z,93.30
2018-06-21T21:42:28.658Z,93.60
2018-06-21T21:47:24.445Z,93.80
2018-06-21T21:52:20.386Z,94.20
2018-06-21T21:57:15.616Z,94.70
2018-06-21T22:02:10.420Z,95.00
2018-06-21T22:07:05.624Z,95.30
2018-06-21T22:12:01.102Z,95.60
2018-06-21T22:21:50.321Z,96.00
2018-06-21T22:26:46.766Z,96.50
2018-06-21T22:31:44.936Z,97.50
2018-06-21T22:36:43.429Z,96.80
2018-06-21T22:41:44.578Z,96.60
2018-06-21T22:46:40.609Z,97.50
2018-06-21T22:51:36.250Z,97.50
2018-06-21T22:56:34.229Z,97.60
2018-06-21T23:01:30.776Z,98.30
2018-06-21T23:06:25.888Z,98.40
2018-06-21T23:11:21.130Z,99.10
2018-06-21T23:16:15.782Z,99.60
2018-06-21T23:21:11.487Z,99.90
2018-06-21T23:26:06.091Z,99.90
2018-06-21T23:31:01.191Z,99.90
2018-06-21T23:35:56.292Z,99.90
2018-06-21T23:40:51.413Z,99.90
2018-06-21T23:45:45.920Z,99.90
2018-06-21T23:50:40.497Z,99.90
2018-06-21T23:55:34.951Z,99.90
